Time;durP1;ratioP1;P1;durP2;ratioP2;P2;SDS_P1;SDS_P2;PMS_P1;PMS_P2;Temp;Humidity;BMP_temperature;BMP_pressure;BME280_temperature;BME280_humidity;BME280_pressure;Samples;Min_cycle;Max_cycle;Signal;HPM_P1;HPM_P2
2023/04/03 00:02:19;;;;;;;3.83;0.90;;;3.00;99.90;;;;;;4993998;28;20030;-73
2023/04/03 00:04:44;;;;;;;4.65;0.70;;;3.00;99.90;;;;;;5011657;28;20034;-73
2023/04/03 00:07:10;;;;;;;4.47;0.63;;;2.90;99.90;;;;;;5011562;28;20025;-73
2023/04/03 00:09:35;;;;;;;3.70;0.68;;;2.90;99.90;;;;;;5015324;28;20029;-73
2023/04/03 00:12:01;;;;;;;2.80;0.85;;;2.90;99.90;;;;;;5008793;28;20104;-73
2023/04/03 00:14:27;;;;;;;2.95;0.60;;;2.90;99.90;;;;;;5010342;28;20180;-73
2023/04/03 00:16:52;;;;;;;4.43;0.88;;;2.90;99.90;;;;;;5010370;28;20146;-73
2023/04/03 00:19:18;;;;;;;3.95;1.10;;;2.90;99.90;;;;;;5008424;28;20617;-73
2023/04/03 00:21:44;;;;;;;3.42;0.63;;;2.80;99.90;;;;;;5011466;28;20030;-73
2023/04/03 00:24:10;;;;;;;6.07;0.73;;;2.80;99.90;;;;;;5008827;28;20072;-73
2023/04/03 00:26:35;;;;;;;6.50;0.70;;;2.80;99.90;;;;;;5010059;28;20018;-73
2023/04/03 00:29:01;;;;;;;3.63;0.82;;;2.70;99.90;;;;;;5006379;28;20031;-73
2023/04/03 00:31:26;;;;;;;4.07;1.08;;;2.70;99.90;;;;;;5004454;28;20029;-73
2023/04/03 00:33:52;;;;;;;7.68;0.70;;;2.70;99.90;;;;;;5011454;28;20474;-73
2023/04/03 00:36:17;;;;;;;3.13;0.60;;;2.80;99.90;;;;;;5008339;28;20485;-73
2023/04/03 00:38:43;;;;;;;5.63;0.60;;;2.80;99.90;;;;;;5004795;28;20046;-73
2023/04/03 00:41:08;;;;;;;2.03;0.60;;;2.80;99.90;;;;;;5011424;28;20033;-73
2023/04/03 00:43:34;;;;;;;2.60;0.52;;;2.90;99.90;;;;;;5015348;28;20025;-73
2023/04/03 00:46:00;;;;;;;2.20;0.73;;;2.90;99.90;;;;;;5014799;28;20034;-73
2023/04/03 00:48:28;;;;;;;5.15;0.75;;;2.90;99.90;;;;;;5012719;28;20068;-73
2023/04/03 00:50:54;;;;;;;3.78;0.70;;;2.90;99.90;;;;;;5016410;28;22214;-73
2023/04/03 00:53:25;;;;;;;2.65;0.60;;;2.90;99.90;;;;;;5024630;28;20022;-73
2023/04/03 00:55:52;;;;;;;3.88;0.65;;;2.90;99.90;;;;;;5015133;28;20033;-73
2023/04/03 00:58:20;;;;;;;3.47;0.77;;;2.90;99.90;;;;;;5014012;28;20470;-73
2023/04/03 01:00:56;;;;;;;2.70;0.50;;;2.90;99.90;;;;;;5003588;28;20036;-73
2023/04/03 01:03:21;;;;;;;10.02;0.80;;;2.90;99.90;;;;;;5008009;28;20429;-73
2023/04/03 01:05:47;;;;;;;3.72;0.70;;;2.90;99.90;;;;;;5012649;28;20117;-73
2023/04/03 01:08:12;;;;;;;4.95;1.00;;;2.90;99.90;;;;;;5017997;28;20022;-73
2023/04/03 01:10:38;;;;;;;3.78;0.80;;;2.80;99.90;;;;;;5014353;28;20409;-73
2023/04/03 01:13:23;;;;;;;3.20;0.60;;;2.90;99.90;;;;;;5007061;28;20169;-73
2023/04/03 01:15:48;;;;;;;3.40;0.73;;;2.90;99.90;;;;;;4997703;28;20034;-73
2023/04/03 01:18:14;;;;;;;1.67;0.60;;;2.90;99.90;;;;;;4999570;28;20493;-73
2023/04/03 01:20:55;;;;;;;4.80;0.77;;;2.90;99.90;;;;;;5011577;28;20124;-73
2023/04/03 01:23:47;;;;;;;2.45;0.60;;;2.80;99.90;;;;;;5012548;28;20053;-73
2023/04/03 01:26:13;;;;;;;2.28;0.60;;;2.80;99.90;;;;;;5010530;28;20029;-73
2023/04/03 01:28:38;;;;;;;3.72;0.70;;;2.70;99.90;;;;;;5004046;28;20368;-73
2023/04/03 01:31:23;;;;;;;4.72;0.80;;;2.70;99.90;;;;;;5013988;28;20033;-73
2023/04/03 01:33:49;;;;;;;4.38;0.82;;;2.70;99.90;;;;;;5014192;28;20029;-73
2023/04/03 01:36:24;;;;;;;3.67;0.88;;;2.60;99.90;;;;;;4996582;28;20038;-73
2023/04/03 01:38:50;;;;;;;3.20;0.60;;;2.60;99.90;;;;;;5016099;28;20044;-73
2023/04/03 01:41:16;;;;;;;2.50;0.70;;;2.60;99.90;;;;;;5013332;28;20026;-73
2023/04/03 01:43:42;;;;;;;2.55;0.70;;;2.60;99.90;;;;;;5009738;28;20018;-73
2023/04/03 01:46:08;;;;;;;4.75;1.10;;;2.60;99.90;;;;;;5012129;28;20030;-73
2023/04/03 01:48:34;;;;;;;3.33;1.10;;;2.50;99.90;;;;;;5012674;28;20164;-73
2023/04/03 01:51:00;;;;;;;3.38;0.70;;;2.50;99.90;;;;;;5013679;28;20113;-73
2023/04/03 01:53:25;;;;;;;2.80;0.70;;;2.50;99.90;;;;;;5012756;28;20624;-73
2023/04/03 01:55:51;;;;;;;4.43;0.82;;;2.50;99.90;;;;;;5000620;28;20554;-73
2023/04/03 01:58:17;;;;;;;5.00;1.00;;;2.50;99.90;;;;;;5009952;28;20390;-73
2023/04/03 02:00:42;;;;;;;4.28;0.70;;;2.40;99.90;;;;;;5011492;28;20401;-73
2023/04/03 02:03:08;;;;;;;3.10;0.70;;;2.40;99.90;;;;;;5012175;28;20041;-73
2023/04/03 02:05:34;;;;;;;4.53;0.68;;;2.40;99.90;;;;;;5011885;28;20030;-73
2023/04/03 02:08:00;;;;;;;7.35;0.90;;;2.40;99.90;;;;;;5002308;28;20029;-73
2023/04/03 02:10:26;;;;;;;2.92;0.80;;;2.30;99.90;;;;;;5005585;28;20394;-73
2023/04/03 02:12:52;;;;;;;3.97;0.80;;;2.30;99.90;;;;;;5013265;28;20028;-73
2023/04/03 02:15:18;;;;;;;4.25;0.80;;;2.30;99.90;;;;;;5005195;28;20514;-73
2023/04/03 02:17:43;;;;;;;3.83;0.82;;;2.30;99.90;;;;;;5007625;28;20034;-73
2023/04/03 02:20:09;;;;;;;5.47;0.80;;;2.30;99.90;;;;;;5011507;28;20064;-73
2023/04/03 02:22:35;;;;;;;4.80;0.93;;;2.20;99.90;;;;;;5013626;28;20026;-73
2023/04/03 02:25:00;;;;;;;4.18;1.02;;;2.20;99.90;;;;;;5009121;28;20037;-73
2023/04/03 02:27:26;;;;;;;5.32;1.05;;;2.20;99.90;;;;;;5002507;28;20507;-73
2023/04/03 02:29:52;;;;;;;4.45;0.80;;;2.20;99.90;;;;;;5022063;28;20030;-74
2023/04/03 02:32:18;;;;;;;3.17;0.70;;;2.10;99.90;;;;;;5011192;28;20033;-73
2023/04/03 02:34:43;;;;;;;3.53;0.80;;;2.10;99.90;;;;;;5011954;28;20508;-73
2023/04/03 02:37:09;;;;;;;3.90;0.70;;;2.00;99.90;;;;;;5012549;28;20386;-73
2023/04/03 02:39:34;;;;;;;4.88;0.88;;;2.00;99.90;;;;;;5007528;28;20049;-73
2023/04/03 02:42:00;;;;;;;3.38;0.90;;;2.00;99.90;;;;;;5015681;28;20029;-73
2023/04/03 02:44:26;;;;;;;5.47;0.80;;;2.00;99.90;;;;;;5000472;28;20072;-73
2023/04/03 02:46:51;;;;;;;4.53;0.90;;;2.00;99.90;;;;;;5011277;28;20448;-73
2023/04/03 02:49:17;;;;;;;3.10;0.70;;;2.00;99.90;;;;;;5001233;28;20073;-73
2023/04/03 02:51:42;;;;;;;4.13;0.90;;;2.00;99.90;;;;;;5018164;28;20037;-73
2023/04/03 02:54:08;;;;;;;5.00;1.10;;;2.00;99.90;;;;;;4998999;28;20030;-73
2023/04/03 02:56:34;;;;;;;3.97;0.70;;;2.00;99.90;;;;;;5012678;28;20482;-73
2023/04/03 02:59:00;;;;;;;4.20;0.70;;;1.90;99.90;;;;;;5001746;28;20030;-73
2023/04/03 03:01:28;;;;;;;2.20;0.70;;;1.90;99.90;;;;;;5003668;28;20041;-73
2023/04/03 03:03:54;;;;;;;5.38;1.13;;;1.80;99.90;;;;;;5010142;28;20510;-73
2023/04/03 03:06:19;;;;;;;2.78;0.60;;;1.80;99.90;;;;;;5004414;28;20031;-73
2023/04/03 03:08:45;;;;;;;4.45;1.00;;;1.80;99.90;;;;;;5005158;28;20424;-73
2023/04/03 03:11:11;;;;;;;4.03;0.90;;;1.80;99.90;;;;;;5004804;28;20060;-73
2023/04/03 03:13:37;;;;;;;4.60;0.90;;;1.80;99.90;;;;;;5010784;28;20486;-73
2023/04/03 03:16:03;;;;;;;4.15;0.80;;;1.70;99.90;;;;;;5010740;28;20029;-73
2023/04/03 03:18:29;;;;;;;6.00;1.20;;;1.70;99.90;;;;;;5000031;28;20032;-73
2023/04/03 03:20:57;;;;;;;6.28;1.10;;;1.70;99.90;;;;;;5004246;28;20041;-73
2023/04/03 03:23:24;;;;;;;2.38;0.75;;;1.70;99.90;;;;;;5007371;28;20060;-73
2023/04/03 03:25:55;;;;;;;8.02;1.25;;;1.70;99.90;;;;;;5000725;28;20063;-73
2023/04/03 03:28:21;;;;;;;3.15;0.90;;;1.70;99.90;;;;;;5004035;28;20053;-73
2023/04/03 03:30:47;;;;;;;2.72;0.60;;;1.60;99.90;;;;;;5009728;28;20053;-73
2023/04/03 03:33:12;;;;;;;3.35;0.82;;;1.60;99.90;;;;;;5011042;28;20066;-73
2023/04/03 03:35:38;;;;;;;6.00;1.17;;;1.60;99.90;;;;;;5012182;28;20049;-73
2023/04/03 03:38:03;;;;;;;6.68;0.80;;;1.60;99.90;;;;;;5012345;28;20065;-73
2023/04/03 03:40:29;;;;;;;3.78;0.77;;;1.60;99.90;;;;;;5011681;28;20490;-73
2023/04/03 03:42:54;;;;;;;5.07;0.80;;;1.60;99.90;;;;;;4999231;28;20080;-73
2023/04/03 03:45:20;;;;;;;3.55;1.02;;;1.60;99.90;;;;;;5009524;28;20120;-73
2023/04/03 03:47:46;;;;;;;3.33;0.68;;;1.60;99.90;;;;;;5008456;28;20018;-73
2023/04/03 03:50:11;;;;;;;3.90;1.40;;;1.50;99.90;;;;;;4994234;28;20418;-73
2023/04/03 03:52:37;;;;;;;4.18;1.00;;;1.50;99.90;;;;;;4998833;28;20037;-73
2023/04/03 03:55:03;;;;;;;4.93;1.00;;;1.50;99.90;;;;;;5004168;28;20116;-73
2023/04/03 03:57:28;;;;;;;9.93;1.23;;;1.50;99.90;;;;;;5002854;28;20112;-73
2023/04/03 03:59:54;;;;;;;2.63;0.82;;;1.50;99.90;;;;;;4995156;28;20042;-73
2023/04/03 04:02:20;;;;;;;5.78;1.00;;;1.50;99.90;;;;;;5004826;28;20037;-73
2023/04/03 04:04:45;;;;;;;5.22;0.80;;;1.50;99.90;;;;;;5001277;28;20479;-73
2023/04/03 04:07:11;;;;;;;6.15;1.08;;;1.50;99.90;;;;;;5011563;28;20026;-72
2023/04/03 04:09:37;;;;;;;3.83;1.20;;;1.50;99.90;;;;;;5011302;28;20030;-73
2023/04/03 04:12:02;;;;;;;4.00;0.70;;;1.40;99.90;;;;;;5009752;28;20034;-73
2023/04/03 04:14:28;;;;;;;5.70;0.80;;;1.40;99.90;;;;;;5009289;28;20054;-72
2023/04/03 04:16:54;;;;;;;4.03;0.80;;;1.40;99.90;;;;;;5008667;28;20241;-73
2023/04/03 04:19:19;;;;;;;3.67;1.05;;;1.40;99.90;;;;;;5010725;28;20169;-73
2023/04/03 04:21:45;;;;;;;2.85;0.85;;;1.40;99.90;;;;;;5008156;28;20424;-73
2023/04/03 04:24:11;;;;;;;4.85;0.90;;;1.40;99.90;;;;;;5010955;28;20079;-73
2023/04/03 04:26:36;;;;;;;4.45;0.75;;;1.40;99.90;;;;;;5009830;28;20022;-73
2023/04/03 04:29:02;;;;;;;5.28;1.00;;;1.40;99.90;;;;;;5009023;28;20045;-73
2023/04/03 04:31:27;;;;;;;5.15;1.08;;;1.30;99.90;;;;;;5001894;28;20026;-73
2023/04/03 04:33:53;;;;;;;6.75;1.13;;;1.30;99.90;;;;;;5008542;28;20038;-73
2023/04/03 04:36:19;;;;;;;4.07;0.70;;;1.40;99.90;;;;;;5001507;28;20025;-73
2023/04/03 04:38:45;;;;;;;4.70;0.73;;;1.30;99.90;;;;;;5007591;28;20421;-73
2023/04/03 04:41:10;;;;;;;3.67;1.15;;;1.30;99.90;;;;;;4998182;28;20097;-73
2023/04/03 04:43:36;;;;;;;3.75;0.60;;;1.30;99.90;;;;;;4998898;28;20034;-73
2023/04/03 04:46:11;;;;;;;4.95;1.08;;;1.30;99.90;;;;;;5007921;28;20031;-73
2023/04/03 04:48:37;;;;;;;4.97;1.00;;;1.30;99.90;;;;;;5006750;28;20637;-73
2023/04/03 04:51:03;;;;;;;3.75;0.90;;;1.30;99.90;;;;;;5016083;28;20076;-73
2023/04/03 04:53:29;;;;;;;3.33;0.88;;;1.30;99.90;;;;;;5019769;28;20099;-73
2023/04/03 04:55:54;;;;;;;9.93;1.30;;;1.30;99.90;;;;;;5008161;28;20022;-73
2023/04/03 04:58:20;;;;;;;5.47;0.73;;;1.20;99.90;;;;;;5013214;28;20026;-73
2023/04/03 05:00:46;;;;;;;4.00;0.82;;;1.20;99.90;;;;;;5003037;28;20072;-73
2023/04/03 05:03:12;;;;;;;5.75;1.77;;;1.20;99.90;;;;;;5002913;28;20038;-73
2023/04/03 05:05:38;;;;;;;2.83;0.60;;;1.20;99.90;;;;;;5005317;28;20034;-73
2023/04/03 05:08:04;;;;;;;4.43;0.73;;;1.10;99.90;;;;;;5004017;28;20046;-73
2023/04/03 05:10:30;;;;;;;4.93;0.90;;;1.20;99.90;;;;;;5003602;28;20040;-73
2023/04/03 05:12:56;;;;;;;4.80;0.85;;;1.20;99.90;;;;;;5001882;28;20029;-73
2023/04/03 05:15:22;;;;;;;3.42;0.77;;;1.10;99.90;;;;;;4995165;28;20069;-72
2023/04/03 05:17:47;;;;;;;3.55;0.82;;;1.10;99.90;;;;;;5003949;28;20045;-73
2023/04/03 05:20:13;;;;;;;4.30;0.80;;;1.10;99.90;;;;;;5004193;28;20072;-73
2023/04/03 05:22:39;;;;;;;5.35;0.90;;;1.10;99.90;;;;;;5008789;28;20477;-73
2023/04/03 05:25:05;;;;;;;3.53;0.65;;;1.10;99.90;;;;;;5025032;28;20018;-73
2023/04/03 05:27:31;;;;;;;5.20;1.17;;;1.10;99.90;;;;;;5010345;28;20390;-73
2023/04/03 05:29:57;;;;;;;5.38;0.73;;;1.10;99.90;;;;;;5013045;28;20026;-73
2023/04/03 05:32:24;;;;;;;7.28;0.80;;;1.10;99.90;;;;;;4996184;28;20059;-73
2023/04/03 05:34:51;;;;;;;5.35;0.90;;;1.10;99.90;;;;;;5007139;28;20031;-73
2023/04/03 05:37:17;;;;;;;2.80;0.70;;;1.10;99.90;;;;;;5010280;28;20029;-73
2023/04/03 05:39:42;;;;;;;3.80;0.73;;;1.10;99.90;;;;;;5013249;28;20034;-72
2023/04/03 05:42:08;;;;;;;3.00;0.73;;;1.10;99.90;;;;;;5001052;28;20026;-73
2023/04/03 05:44:34;;;;;;;4.63;0.90;;;1.10;99.90;;;;;;4998910;28;20034;-73
2023/04/03 05:46:59;;;;;;;5.28;1.17;;;1.10;99.90;;;;;;5009704;28;20523;-73
2023/04/03 05:49:25;;;;;;;4.63;0.82;;;1.20;99.90;;;;;;4999390;28;20030;-72
2023/04/03 05:51:51;;;;;;;7.22;1.20;;;1.20;99.90;;;;;;4999861;28;20027;-72
2023/04/03 05:54:26;;;;;;;6.50;1.08;;;1.30;99.90;;;;;;5009621;28;20165;-72
2023/04/03 05:56:52;;;;;;;4.60;0.80;;;1.30;99.90;;;;;;5008693;28;20022;-73
2023/04/03 05:59:19;;;;;;;5.43;1.13;;;1.40;99.90;;;;;;5015385;28;20049;-73
2023/04/03 06:01:45;;;;;;;5.18;0.68;;;1.40;99.90;;;;;;5000468;28;20371;-73
2023/04/03 06:04:12;;;;;;;8.32;1.00;;;1.40;99.90;;;;;;5006040;28;20026;-73
2023/04/03 06:06:44;;;;;;;4.35;0.80;;;1.50;99.90;;;;;;5003326;28;20034;-73
2023/04/03 06:09:09;;;;;;;7.43;1.15;;;1.60;99.90;;;;;;5016325;28;20022;-73
2023/04/03 06:11:35;;;;;;;6.65;1.17;;;1.60;99.90;;;;;;5010339;28;20552;-73
2023/04/03 06:14:01;;;;;;;6.45;1.05;;;1.60;99.90;;;;;;5012199;28;20046;-73
2023/04/03 06:16:26;;;;;;;8.65;1.00;;;1.70;99.90;;;;;;5008933;28;20033;-73
2023/04/03 06:18:52;;;;;;;4.50;0.95;;;1.70;99.90;;;;;;5004939;28;20022;-73
2023/04/03 06:21:17;;;;;;;6.93;1.00;;;1.70;99.90;;;;;;5002273;28;20096;-73
2023/04/03 06:23:43;;;;;;;4.75;0.98;;;1.80;99.90;;;;;;5000186;28;20504;-73
2023/04/03 06:26:09;;;;;;;5.53;1.02;;;1.80;99.90;;;;;;4998807;28;20072;-73
2023/04/03 06:28:34;;;;;;;4.78;0.88;;;1.90;99.90;;;;;;5002209;28;20391;-72
2023/04/03 06:31:00;;;;;;;7.10;1.33;;;1.90;99.90;;;;;;5007383;28;20034;-73
2023/04/03 06:33:26;;;;;;;9.02;1.17;;;2.00;99.90;;;;;;5000756;28;20035;-73
2023/04/03 06:35:57;;;;;;;4.60;0.80;;;2.00;99.90;;;;;;4998893;28;20035;-73
2023/04/03 06:38:23;;;;;;;4.50;0.80;;;2.10;99.90;;;;;;4997857;28;20026;-74
2023/04/03 06:40:49;;;;;;;5.43;0.77;;;2.10;99.90;;;;;;5010307;28;20061;-74
2023/04/03 06:43:14;;;;;;;10.25;0.98;;;2.20;99.90;;;;;;4996047;28;20026;-74
2023/04/03 06:45:40;;;;;;;5.38;1.35;;;2.30;99.90;;;;;;4996027;28;20109;-74
2023/04/03 06:48:06;;;;;;;5.15;1.25;;;2.40;99.90;;;;;;5000436;28;20026;-74
2023/04/03 06:50:31;;;;;;;4.57;1.10;;;2.40;99.90;;;;;;4993413;28;20089;-74
2023/04/03 06:52:57;;;;;;;2.70;0.70;;;2.50;99.90;;;;;;5031082;28;20022;-74
2023/04/03 06:55:22;;;;;;;4.30;0.90;;;2.60;99.90;;;;;;5004930;28;20034;-75
2023/04/03 06:57:48;;;;;;;8.95;1.83;;;2.60;99.90;;;;;;5004599;28;20072;-74
2023/04/03 07:00:14;;;;;;;5.97;0.80;;;2.70;99.90;;;;;;5003560;28;20501;-74
2023/04/03 07:02:40;;;;;;;5.53;0.70;;;2.80;99.90;;;;;;5008621;28;20025;-74
2023/04/03 07:05:06;;;;;;;7.78;0.75;;;2.90;99.90;;;;;;5005049;28;20025;-74
2023/04/03 07:07:33;;;;;;;5.53;1.30;;;2.90;99.90;;;;;;5005389;28;20033;-74
2023/04/03 07:09:59;;;;;;;6.90;0.85;;;3.00;99.90;;;;;;5007311;28;20052;-74
2023/04/03 07:12:26;;;;;;;4.28;0.80;;;3.10;99.90;;;;;;5002988;28;20029;-72
2023/04/03 07:14:51;;;;;;;5.00;1.15;;;3.10;99.90;;;;;;5006550;28;20053;-72
2023/04/03 07:17:17;;;;;;;2.90;0.50;;;3.20;99.90;;;;;;5005775;28;20125;-72
2023/04/03 07:19:42;;;;;;;6.55;0.90;;;3.30;99.90;;;;;;5002836;28;20045;-72
2023/04/03 07:22:08;;;;;;;5.30;0.70;;;3.40;99.90;;;;;;5006362;28;20045;-73
2023/04/03 07:24:34;;;;;;;5.43;1.25;;;3.50;99.90;;;;;;5011137;28;20367;-72
2023/04/03 07:27:01;;;;;;;3.72;0.70;;;3.50;99.90;;;;;;5001338;28;20379;-72
2023/04/03 07:29:27;;;;;;;5.80;1.02;;;3.60;99.90;;;;;;5005631;28;20093;-72
2023/04/03 07:31:52;;;;;;;5.20;1.15;;;3.60;99.90;;;;;;5002203;28;20118;-73
2023/04/03 07:34:18;;;;;;;7.13;1.35;;;3.70;99.90;;;;;;5003710;28;20018;-72
2023/04/03 07:36:44;;;;;;;5.28;1.05;;;3.80;99.90;;;;;;5009780;28;20030;-72
2023/04/03 07:39:10;;;;;;;4.80;0.75;;;3.80;99.90;;;;;;5016112;28;20045;-72
2023/04/03 07:41:36;;;;;;;6.30;0.70;;;3.90;99.90;;;;;;5011219;28;20483;-72
2023/04/03 07:44:02;;;;;;;5.03;0.98;;;3.90;99.90;;;;;;5009292;28;20026;-72
2023/04/03 07:46:28;;;;;;;4.88;0.90;;;4.00;99.90;;;;;;5013432;28;20026;-72
2023/04/03 07:48:53;;;;;;;5.22;0.75;;;4.10;99.90;;;;;;5002126;28;20033;-72
2023/04/03 07:51:19;;;;;;;8.00;0.93;;;4.20;99.90;;;;;;4993072;28;20022;-72
2023/04/03 07:53:45;;;;;;;5.00;0.70;;;4.30;99.90;;;;;;5007659;28;20021;-72
2023/04/03 07:56:11;;;;;;;6.72;0.60;;;4.30;99.90;;;;;;5003764;28;20053;-72
2023/04/03 07:58:37;;;;;;;4.13;0.60;;;4.30;99.90;;;;;;5005412;28;20108;-73
2023/04/03 08:01:03;;;;;;;2.20;0.57;;;4.30;99.90;;;;;;5001547;28;20041;-72
2023/04/03 08:03:28;;;;;;;5.25;0.60;;;4.40;99.90;;;;;;5003691;28;20034;-73
2023/04/03 08:05:54;;;;;;;3.88;0.70;;;4.50;99.90;;;;;;5004521;28;20372;-72
2023/04/03 08:08:23;;;;;;;4.50;0.80;;;4.60;99.90;;;;;;5002529;28;20025;-73
2023/04/03 08:10:52;;;;;;;5.65;0.57;;;4.70;99.90;;;;;;5014937;28;20037;-73
2023/04/03 08:13:18;;;;;;;6.38;0.75;;;4.70;99.90;;;;;;5008281;28;20482;-72
2023/04/03 08:15:44;;;;;;;3.97;0.60;;;4.70;99.90;;;;;;5009192;28;20044;-73
2023/04/03 08:18:10;;;;;;;4.32;0.80;;;4.70;99.90;;;;;;5002260;28;20125;-72
2023/04/03 08:20:38;;;;;;;4.28;0.70;;;4.70;99.90;;;;;;5043134;28;20038;-73
2023/04/03 08:23:03;;;;;;;4.22;0.70;;;4.70;99.90;;;;;;5011386;28;20037;-73
2023/04/03 08:25:29;;;;;;;5.20;0.63;;;4.80;99.90;;;;;;5003526;28;20447;-73
2023/04/03 08:27:55;;;;;;;2.75;0.50;;;5.00;99.90;;;;;;5013928;28;20040;-72
2023/04/03 08:30:21;;;;;;;4.22;0.50;;;5.00;99.90;;;;;;5008389;28;20163;-73
2023/04/03 08:32:47;;;;;;;3.58;0.52;;;5.20;99.90;;;;;;4999364;28;20026;-73
2023/04/03 08:35:12;;;;;;;3.80;0.70;;;5.30;99.90;;;;;;5002150;28;20040;-73
2023/04/03 08:37:39;;;;;;;5.75;0.60;;;5.40;99.90;;;;;;5004093;28;20500;-73
2023/04/03 08:40:06;;;;;;;2.95;0.40;;;5.40;99.90;;;;;;5003459;28;20038;-73
2023/04/03 08:42:59;;;;;;;3.67;0.47;;;5.50;99.90;;;;;;5002730;28;20022;-73
2023/04/03 08:45:41;;;;;;;3.25;0.50;;;5.60;99.90;;;;;;5019188;28;20057;-73
2023/04/03 08:48:14;;;;;;;4.47;0.60;;;5.70;99.90;;;;;;5006552;28;20104;-73
2023/04/03 08:50:41;;;;;;;6.00;1.33;;;5.70;99.90;;;;;;5010862;28;20057;-73
2023/04/03 08:53:15;;;;;;;2.90;0.40;;;5.80;99.90;;;;;;5006174;28;20504;-73
2023/04/03 08:55:46;;;;;;;5.05;0.60;;;5.90;99.90;;;;;;5002374;28;20471;-73
2023/04/03 08:58:16;;;;;;;2.92;0.40;;;5.90;99.90;;;;;;5010596;28;20141;-73
2023/04/03 09:00:57;;;;;;;3.45;0.40;;;5.90;99.90;;;;;;5011692;28;20072;-73
2023/04/03 09:03:23;;;;;;;2.05;0.47;;;6.00;99.90;;;;;;5000294;28;20487;-73
2023/04/03 09:06:15;;;;;;;1.08;0.30;;;6.10;99.90;;;;;;5007725;28;20041;-73
2023/04/03 09:08:50;;;;;;;2.15;0.35;;;6.20;99.90;;;;;;5014795;28;20029;-73
2023/04/03 09:11:32;;;;;;;2.80;0.40;;;6.30;99.90;;;;;;5014970;28;20363;-73
2023/04/03 09:14:29;;;;;;;2.17;0.25;;;6.30;99.60;;;;;;5000273;28;20050;-73
2023/04/03 09:16:58;;;;;;;1.40;0.20;;;6.40;97.00;;;;;;5000526;28;20478;-71
2023/04/03 09:19:42;;;;;;;3.50;0.40;;;6.40;96.70;;;;;;5013949;28;20096;-72
2023/04/03 09:22:21;;;;;;;1.30;0.22;;;6.40;94.60;;;;;;5010756;28;20145;-73
2023/04/03 09:24:55;;;;;;;1.27;0.30;;;6.50;92.80;;;;;;5034391;28;20026;-72
2023/04/03 09:27:21;;;;;;;2.47;0.30;;;6.50;92.30;;;;;;4995389;28;20497;-72
2023/04/03 09:29:47;;;;;;;2.58;0.30;;;6.60;92.80;;;;;;5010162;28;20034;-74
2023/04/03 09:32:24;;;;;;;3.88;0.40;;;6.70;92.50;;;;;;5014329;28;20060;-73
2023/04/03 09:34:52;;;;;;;2.40;0.20;;;6.80;91.30;;;;;;5011600;28;20535;-73
2023/04/03 09:37:44;;;;;;;2.75;0.30;;;6.90;89.60;;;;;;5027858;28;20500;-72
2023/04/03 09:40:34;;;;;;;3.30;0.55;;;7.00;85.60;;;;;;5009796;28;20503;-73
2023/04/03 09:43:18;;;;;;;1.20;0.15;;;7.00;86.00;;;;;;5005394;28;20028;-72
2023/04/03 09:45:45;;;;;;;1.25;0.20;;;7.10;83.80;;;;;;5010635;28;20070;-73
2023/04/03 09:48:14;;;;;;;1.90;0.30;;;7.30;85.30;;;;;;5009335;28;20033;-72
2023/04/03 09:51:01;;;;;;;2.30;0.20;;;7.40;84.10;;;;;;5014160;28;20026;-72
2023/04/03 09:53:37;;;;;;;0.73;0.20;;;7.40;78.00;;;;;;5001458;28;20549;-71
2023/04/03 09:56:21;;;;;;;3.67;0.20;;;7.40;76.40;;;;;;5011467;28;20026;-71
2023/04/03 09:58:59;;;;;;;0.50;0.10;;;7.40;71.90;;;;;;5007206;28;20482;-73
2023/04/03 10:01:35;;;;;;;1.10;0.10;;;7.40;70.80;;;;;;4998661;28;20413;-73
2023/04/03 10:04:16;;;;;;;0.73;0.10;;;7.40;64.80;;;;;;5010592;28;20018;-71
2023/04/03 10:06:55;;;;;;;0.30;0.08;;;7.50;65.90;;;;;;5011371;28;20030;-72
2023/04/03 10:09:32;;;;;;;0.63;0.10;;;7.60;65.00;;;;;;5008178;28;20022;-73
2023/04/03 10:12:11;;;;;;;0.65;0.10;;;7.70;65.30;;;;;;5000960;28;20508;-73
2023/04/03 10:14:55;;;;;;;1.17;0.20;;;7.80;64.50;;;;;;5008100;28;20509;-73
2023/04/03 10:17:21;;;;;;;0.80;0.13;;;7.80;63.40;;;;;;5004889;28;20034;-72
2023/04/03 10:20:09;;;;;;;0.82;0.10;;;7.80;64.70;;;;;;5012656;28;20029;-72
2023/04/03 10:22:39;;;;;;;0.52;0.10;;;7.90;62.70;;;;;;5008647;28;20081;-72
2023/04/03 10:25:23;;;;;;;0.28;0.10;;;7.90;61.60;;;;;;5013105;28;20164;-72
2023/04/03 10:27:59;;;;;;;1.35;0.10;;;8.00;62.90;;;;;;5023525;28;20030;-72
2023/04/03 10:30:49;;;;;;;1.50;0.15;;;8.10;63.70;;;;;;4999900;28;20394;-72
2023/04/03 10:33:30;;;;;;;0.50;0.10;;;8.20;62.50;;;;;;4993686;28;20026;-72
2023/04/03 10:36:42;;;;;;;0.22;0.03;;;8.10;59.20;;;;;;5001675;28;20054;-72
2023/04/03 10:39:31;;;;;;;0.57;0.10;;;8.00;59.50;;;;;;5000939;28;20088;-72
2023/04/03 10:42:19;;;;;;;0.50;0.10;;;8.00;59.90;;;;;;5006500;28;20027;-73
2023/04/03 10:45:27;;;;;;;0.70;0.10;;;8.00;58.40;;;;;;4995955;28;20041;-73
2023/04/03 10:48:08;;;;;;;2.53;0.10;;;8.10;57.70;;;;;;5009852;28;20065;-72
2023/04/03 10:50:54;;;;;;;1.25;0.10;;;8.10;59.40;;;;;;5010670;28;20077;-72
2023/04/03 10:53:32;;;;;;;0.40;0.10;;;8.20;58.20;;;;;;5010882;28;20014;-72
2023/04/03 10:56:38;;;;;;;1.35;0.10;;;8.20;58.00;;;;;;4995620;28;20018;-72
2023/04/03 10:59:27;;;;;;;1.00;0.17;;;8.30;58.30;;;;;;5004165;23;20410;-72
2023/04/03 11:02:18;;;;;;;3.55;0.20;;;8.20;58.40;;;;;;4990047;28;20112;-73
2023/04/03 11:04:47;;;;;;;1.77;0.20;;;8.30;58.40;;;;;;4992073;28;20045;-73
2023/04/03 11:07:26;;;;;;;2.85;0.20;;;8.30;57.00;;;;;;4985054;28;20030;-73
2023/04/03 11:10:02;;;;;;;0.57;0.25;;;8.20;58.20;;;;;;4992254;28;20030;-73
2023/04/03 11:12:41;;;;;;;1.38;0.10;;;8.20;57.90;;;;;;4992982;28;20651;-71
2023/04/03 11:15:16;;;;;;;1.75;0.10;;;8.30;58.10;;;;;;4992263;28;20077;-72
2023/04/03 11:17:55;;;;;;;0.77;0.20;;;8.30;58.70;;;;;;4993187;28;20041;-72
2023/04/03 11:20:21;;;;;;;2.63;0.20;;;8.50;59.30;;;;;;4992171;28;20038;-72
2023/04/03 11:22:58;;;;;;;0.60;0.10;;;8.50;57.30;;;;;;4985401;28;20056;-72
2023/04/03 11:25:29;;;;;;;1.02;0.20;;;8.40;58.00;;;;;;4977404;28;20450;-73
2023/04/03 11:28:01;;;;;;;1.08;0.20;;;8.40;58.50;;;;;;4992428;28;20043;-72
2023/04/03 11:30:29;;;;;;;1.02;0.10;;;8.50;58.80;;;;;;4985717;28;20034;-73
2023/04/03 11:33:17;;;;;;;2.40;0.30;;;8.60;58.60;;;;;;4986669;28;20026;-71
2023/04/03 11:35:46;;;;;;;2.67;0.22;;;8.60;58.80;;;;;;5011521;28;20026;-72
2023/04/03 11:38:21;;;;;;;0.80;0.10;;;8.60;59.10;;;;;;4990506;28;20020;-71
2023/04/03 11:40:47;;;;;;;1.27;0.10;;;8.70;59.90;;;;;;4992269;28;20808;-72
2023/04/03 11:43:29;;;;;;;0.85;0.10;;;8.80;60.30;;;;;;4984706;28;20029;-72
2023/04/03 11:45:59;;;;;;;0.90;0.20;;;8.80;59.20;;;;;;4991486;28;20030;-71
2023/04/03 11:48:33;;;;;;;2.03;0.20;;;8.80;57.70;;;;;;4990678;28;20431;-72
2023/04/03 11:51:21;;;;;;;1.15;0.20;;;8.80;58.80;;;;;;4987231;28;20378;-72
2023/04/03 11:53:47;;;;;;;1.88;0.30;;;8.90;59.10;;;;;;4991818;28;20034;-71
2023/04/03 11:56:30;;;;;;;2.45;0.17;;;8.90;58.60;;;;;;4991772;28;20026;-71
2023/04/03 11:59:25;;;;;;;1.85;0.55;;;8.90;58.60;;;;;;4990203;28;20046;-71
2023/04/03 12:01:57;;;;;;;1.73;0.20;;;8.80;58.10;;;;;;4991337;28;20062;-71
2023/04/03 12:04:25;;;;;;;3.15;0.22;;;8.90;58.30;;;;;;4991428;28;20030;-71
2023/04/03 12:07:14;;;;;;;0.75;0.20;;;8.90;59.60;;;;;;4991361;28;20042;-71
2023/04/03 12:09:40;;;;;;;1.77;0.20;;;9.10;59.00;;;;;;4987983;28;20037;-71
2023/04/03 12:12:22;;;;;;;1.38;0.20;;;9.00;58.70;;;;;;4990245;28;20027;-71
2023/04/03 12:14:48;;;;;;;;;;;9.10;58.80;;;;;;4982554;28;20026;-71
2023/04/03 12:17:25;;;;;;;1.63;0.20;;;9.10;58.60;;;;;;4988237;28;20317;-71
2023/04/03 12:19:51;;;;;;;2.03;0.40;;;9.10;58.90;;;;;;4989488;28;20057;-72
2023/04/03 12:22:20;;;;;;;2.97;0.20;;;9.10;59.70;;;;;;4990032;28;20488;-72
2023/04/03 12:24:49;;;;;;;1.25;0.20;;;9.20;60.70;;;;;;4992153;28;20030;-72
2023/04/03 12:27:21;;;;;;;3.45;0.38;;;9.40;60.50;;;;;;4992251;28;20134;-71
2023/04/03 12:29:51;;;;;;;;;;;9.40;59.50;;;;;;5006705;28;20486;-71
2023/04/03 12:32:55;;;;;;;2.63;0.25;;;9.40;59.30;;;;;;5009459;28;20373;-71
2023/04/03 12:35:31;;;;;;;3.20;0.28;;;9.50;60.10;;;;;;4973191;28;20030;-72
2023/04/03 12:38:20;;;;;;;2.47;0.20;;;9.50;58.80;;;;;;4993501;28;20417;-71
2023/04/03 12:40:58;;;;;;;5.03;0.30;;;9.50;58.80;;;;;;4995521;28;20093;-71
2023/04/03 12:43:50;;;;;;;1.20;0.25;;;9.40;58.80;;;;;;4995673;28;20025;-71
2023/04/03 12:46:18;;;;;;;0.73;0.20;;;9.40;58.80;;;;;;4994649;28;20108;-71
2023/04/03 12:48:54;;;;;;;7.47;0.40;;;9.50;58.00;;;;;;4995538;28;20105;-71
2023/04/03 12:51:32;;;;;;;1.20;0.20;;;9.50;59.10;;;;;;4994230;28;20040;-72
2023/04/03 12:54:14;;;;;;;2.20;0.40;;;9.50;59.30;;;;;;4991095;28;20077;-71
2023/04/03 12:56:40;;;;;;;1.38;0.30;;;9.60;59.10;;;;;;4995007;28;20097;-71
2023/04/03 12:59:26;;;;;;;1.45;0.25;;;9.60;59.70;;;;;;4994358;28;20046;-71
2023/04/03 13:01:57;;;;;;;1.60;0.30;;;9.60;59.90;;;;;;4995254;28;20046;-72
2023/04/03 13:04:24;;;;;;;1.10;0.20;;;9.60;59.80;;;;;;4995320;28;20023;-71
2023/04/03 13:06:50;;;;;;;3.28;0.40;;;9.70;60.20;;;;;;4995998;28;20415;-71
2023/04/03 13:09:22;;;;;;;3.80;0.32;;;9.80;59.00;;;;;;4994904;28;20057;-71
2023/04/03 13:11:58;;;;;;;1.98;0.30;;;9.80;58.60;;;;;;4991904;28;20030;-71
2023/04/03 13:14:28;;;;;;;4.43;0.40;;;9.70;59.20;;;;;;4986208;28;20057;-72